LIEE/CAG METAR and TAF weather

Enter ICAO airport designator
Station Type Date Time Source
LIEE METAR 2021/03/01 03:50 UTC NOAA

LIEE 010350Z AUTO 10005KT 9999 BKN036/// 12/09 Q1025


Station Type Date Time Source
LIEE Decoded METAR 2021/03/01 03:50 UTC NOAA

Cagliari / Elmas, Italy (LIEE) 39-15N 009-04E 5M
Feb 28, 2021 - 10:50 PM EST / 2021.03.01 0350 UTC
Wind: from the E (100 degrees) at 6 MPH (5 KT):0
Visibility: greater than 7 mile(s):0
Sky conditions: mostly cloudy
Temperature: 53 F (12 C)
Dew Point: 48 F (9 C)
Relative Humidity: 81%
Pressure (altimeter): 30.27 in. Hg (1025 hPa)
ob: LIEE 010350Z AUTO 10005KT 9999 BKN036/// 12/09 Q1025
cycle: 4

Station Type Date Time Source
LIEE TAF 2021/02/28 18:21 UTC NOAA

TAF LIEE 281700Z 2818/0118 VRB05KT 9999 SCT020
BECMG 0109/0111 14012KT

Example: see airport list